Time;durP1;ratioP1;P1;durP2;ratioP2;P2;SDS_P1;SDS_P2;PMS_P1;PMS_P2;Temp;Humidity;BMP_temperature;BMP_pressure;BME280_temperature;BME280_humidity;BME280_pressure;Samples;Min_cycle;Max_cycle;Signal;HPM_P1;HPM_P2
2022/05/11 00:01:31;;;;;;;14.77;9.10;;;17.40;91.40;;;;;;4977180;28;20132;-68
2022/05/11 00:03:58;;;;;;;14.75;9.05;;;17.30;91.70;;;;;;4994594;28;20464;-67
2022/05/11 00:06:25;;;;;;;15.85;9.00;;;17.30;91.70;;;;;;4976871;28;20407;-67
2022/05/11 00:08:52;;;;;;;14.70;8.90;;;17.20;92.00;;;;;;4994198;28;20031;-66
2022/05/11 00:11:18;;;;;;;15.00;9.05;;;17.20;92.10;;;;;;4994260;28;20069;-68
2022/05/11 00:13:44;;;;;;;16.02;9.23;;;17.20;92.30;;;;;;4976840;28;20061;-68
2022/05/11 00:16:11;;;;;;;14.75;9.40;;;17.20;92.60;;;;;;4993831;28;20030;-68
2022/05/11 00:18:37;;;;;;;14.32;9.50;;;17.10;92.70;;;;;;4993885;28;20041;-67
2022/05/11 00:21:03;;;;;;;16.17;9.00;;;17.10;92.80;;;;;;4976584;28;20077;-68
2022/05/11 00:23:29;;;;;;;15.50;9.50;;;17.10;92.90;;;;;;4994188;28;20023;-68
2022/05/11 00:25:55;;;;;;;15.20;9.20;;;17.10;92.90;;;;;;4993121;28;20379;-67
2022/05/11 00:28:21;;;;;;;14.82;9.10;;;17.00;93.10;;;;;;4976335;28;20081;-66
2022/05/11 00:30:48;;;;;;;19.58;9.93;;;17.00;93.10;;;;;;5021887;22;20026;-65
2022/05/11 00:33:15;;;;;;;15.82;9.43;;;17.00;93.20;;;;;;5071122;28;20024;-65
2022/05/11 00:35:42;;;;;;;15.40;10.20;;;17.00;93.20;;;;;;5091832;28;20392;-66
2022/05/11 00:38:09;;;;;;;18.30;9.52;;;17.00;93.20;;;;;;5092157;28;20085;-67
2022/05/11 00:40:43;;;;;;;16.98;10.00;;;16.90;93.30;;;;;;5092153;28;20116;-67
2022/05/11 00:43:10;;;;;;;15.07;9.57;;;16.90;93.40;;;;;;5071761;28;20016;-67
2022/05/11 00:45:43;;;;;;;15.70;9.57;;;17.00;93.70;;;;;;5071574;28;20488;-67
2022/05/11 00:50:57;;;;;;;15.70;9.68;;;16.90;93.70;;;;;;5071969;28;20495;-67
2022/05/11 00:53:23;;;;;;;17.20;9.57;;;16.90;93.70;;;;;;5071649;28;20029;-67
2022/05/11 00:55:59;;;;;;;15.48;9.68;;;16.90;93.80;;;;;;5071381;28;20021;-66
2022/05/11 00:58:41;;;;;;;16.00;9.65;;;16.90;94.00;;;;;;5053921;28;20028;-67
2022/05/11 01:01:08;;;;;;;16.27;9.63;;;16.80;94.20;;;;;;5071688;28;20062;-66
2022/05/11 01:03:47;;;;;;;15.00;9.40;;;16.90;94.20;;;;;;5052927;28;20020;-66
2022/05/11 01:06:13;;;;;;;16.50;9.18;;;16.80;94.40;;;;;;5053405;28;20107;-66
2022/05/11 01:08:39;;;;;;;15.52;9.45;;;16.80;94.60;;;;;;5071777;28;20147;-67
2022/05/11 01:11:07;;;;;;;16.50;10.40;;;16.80;94.80;;;;;;5071269;28;20032;-66
2022/05/11 01:13:36;;;;;;;15.25;9.77;;;16.80;95.20;;;;;;5053244;28;20417;-66
2022/05/11 01:16:02;;;;;;;15.55;10.30;;;16.80;95.50;;;;;;5053245;28;20032;-66
2022/05/11 01:18:29;;;;;;;16.38;9.50;;;16.80;95.80;;;;;;5053435;28;20082;-66
2022/05/11 01:20:55;;;;;;;15.23;9.90;;;16.80;96.00;;;;;;5071160;28;20055;-66
2022/05/11 01:23:44;;;;;;;16.25;9.88;;;16.80;96.30;;;;;;5071101;28;20024;-66
2022/05/11 01:26:10;;;;;;;15.00;10.20;;;16.70;96.70;;;;;;5071195;28;20051;-66
2022/05/11 01:28:54;;;;;;;15.15;9.55;;;16.70;96.90;;;;;;5071384;28;20476;-66
2022/05/11 01:31:21;;;;;;;16.45;10.27;;;16.60;97.20;;;;;;5071451;28;20438;-66
2022/05/11 01:33:49;;;;;;;15.30;9.68;;;16.60;97.40;;;;;;5071064;28;20039;-66
2022/05/11 01:36:30;;;;;;;17.85;10.65;;;16.60;97.60;;;;;;5052497;28;20123;-66
2022/05/11 01:39:04;;;;;;;18.88;10.82;;;16.60;97.80;;;;;;5052922;28;20032;-66
2022/05/11 01:41:34;;;;;;;16.63;10.15;;;16.60;98.30;;;;;;5070972;28;20534;-65
2022/05/11 01:44:01;;;;;;;17.23;10.13;;;16.60;99.40;;;;;;5052698;28;20124;-67
2022/05/11 01:46:27;;;;;;;16.38;11.15;;;16.50;99.90;;;;;;5053024;28;20032;-66
2022/05/11 01:48:53;;;;;;;17.58;10.63;;;16.40;99.90;;;;;;5070722;28;20082;-65
2022/05/11 01:51:20;;;;;;;17.60;10.43;;;16.40;99.90;;;;;;5070955;28;20071;-66
2022/05/11 01:53:47;;;;;;;17.05;10.20;;;16.30;99.90;;;;;;5070899;28;20020;-66
2022/05/11 01:56:19;;;;;;;17.20;10.25;;;16.30;99.90;;;;;;5052846;28;20024;-67
2022/05/11 01:58:45;;;;;;;15.77;10.13;;;16.30;99.90;;;;;;5052692;28;20031;-67
2022/05/11 02:01:11;;;;;;;16.65;10.20;;;16.30;99.90;;;;;;5070797;28;20020;-67
2022/05/11 02:03:37;;;;;;;16.88;10.45;;;16.30;99.90;;;;;;5052646;28;20021;-67
2022/05/11 02:08:48;;;;;;;16.63;10.35;;;16.30;99.90;;;;;;5070670;28;20028;-66
2022/05/11 02:11:14;;;;;;;17.83;10.35;;;16.30;99.90;;;;;;5070466;28;20033;-67
2022/05/11 02:13:40;;;;;;;16.30;10.30;;;16.40;99.90;;;;;;5071366;28;20025;-67
2022/05/11 02:16:06;;;;;;;16.73;10.38;;;16.40;99.90;;;;;;5056437;28;20031;-67
2022/05/11 02:18:32;;;;;;;16.50;10.18;;;16.40;99.90;;;;;;5074529;28;20066;-66
2022/05/11 02:20:58;;;;;;;19.45;10.70;;;16.40;99.90;;;;;;5074407;28;20099;-67
2022/05/11 02:23:24;;;;;;;18.40;10.40;;;16.40;99.90;;;;;;5056588;28;20610;-66
2022/05/11 02:25:51;;;;;;;16.58;9.98;;;16.40;99.90;;;;;;5074295;28;20442;-66
2022/05/11 02:28:19;;;;;;;17.02;10.38;;;16.40;99.90;;;;;;5074144;28;20029;-67
2022/05/11 02:30:45;;;;;;;17.73;10.93;;;16.40;99.90;;;;;;5056030;28;20071;-66
2022/05/11 02:33:12;;;;;;;21.90;11.32;;;16.40;99.90;;;;;;5074382;28;20029;-66
2022/05/11 02:35:39;;;;;;;15.88;10.68;;;16.40;99.90;;;;;;5073949;28;20055;-66
2022/05/11 02:38:09;;;;;;;16.17;10.80;;;16.40;99.90;;;;;;5056233;28;20465;-66
2022/05/11 02:40:37;;;;;;;16.55;10.50;;;16.40;99.90;;;;;;5074156;28;20070;-66
2022/05/11 02:43:03;;;;;;;15.90;10.73;;;16.40;99.90;;;;;;5056045;28;20073;-66
2022/05/11 02:45:31;;;;;;;16.55;10.68;;;16.40;99.90;;;;;;5073998;28;20088;-66
2022/05/11 02:47:58;;;;;;;17.97;10.57;;;16.30;99.90;;;;;;5074071;28;20028;-66
2022/05/11 02:50:30;;;;;;;16.25;10.73;;;16.30;99.90;;;;;;5055789;28;20028;-66
2022/05/11 02:52:56;;;;;;;16.42;10.60;;;16.30;99.90;;;;;;5073731;28;20123;-66
2022/05/11 02:55:22;;;;;;;17.95;11.10;;;16.20;99.90;;;;;;5055638;28;20048;-66
2022/05/11 02:57:48;;;;;;;16.05;10.00;;;16.20;99.90;;;;;;5055725;28;20048;-66
2022/05/11 03:00:16;;;;;;;17.02;10.52;;;16.10;99.90;;;;;;5073612;28;20515;-66
2022/05/11 03:02:42;;;;;;;18.33;10.18;;;16.20;99.90;;;;;;5073730;28;20017;-66
2022/05/11 03:05:10;;;;;;;17.05;11.10;;;16.20;99.90;;;;;;5073491;28;20028;-66
2022/05/11 03:07:36;;;;;;;18.00;10.47;;;16.20;99.90;;;;;;5073895;28;20027;-66
2022/05/11 03:10:01;;;;;;;16.98;10.45;;;16.20;99.90;;;;;;5055514;28;20020;-66
2022/05/11 03:12:27;;;;;;;17.50;10.88;;;16.20;99.90;;;;;;5073308;28;20025;-66
2022/05/11 03:14:57;;;;;;;16.45;10.95;;;16.20;99.90;;;;;;5073271;28;20078;-65
2022/05/11 03:17:23;;;;;;;15.82;10.50;;;16.30;99.90;;;;;;5055358;28;20481;-66
2022/05/11 03:19:49;;;;;;;16.63;11.00;;;16.30;99.90;;;;;;5072946;28;20035;-66
2022/05/11 03:22:14;;;;;;;16.98;10.80;;;16.20;99.90;;;;;;5073310;28;20028;-65
2022/05/11 03:24:40;;;;;;;15.55;10.30;;;16.20;99.90;;;;;;5072963;28;20050;-66
2022/05/11 03:27:06;;;;;;;16.85;10.70;;;16.20;99.90;;;;;;5072493;28;20070;-64
2022/05/11 03:29:33;;;;;;;17.15;11.35;;;16.20;99.90;;;;;;5072817;28;20477;-65
2022/05/11 03:34:43;;;;;;;16.63;11.27;;;16.20;99.90;;;;;;5073548;28;20075;-66
2022/05/11 03:37:16;;;;;;;17.92;11.27;;;16.20;99.90;;;;;;5073476;28;20052;-66
2022/05/11 03:39:41;;;;;;;17.00;11.07;;;16.20;99.90;;;;;;5073417;28;20055;-66
2022/05/11 03:42:12;;;;;;;17.23;10.77;;;16.30;99.90;;;;;;5055348;28;20365;-66
2022/05/11 03:44:38;;;;;;;18.40;11.43;;;16.30;99.90;;;;;;5073549;28;20028;-65
2022/05/11 03:47:04;;;;;;;16.48;11.30;;;16.30;99.90;;;;;;5073069;28;20028;-66
2022/05/11 03:49:30;;;;;;;18.40;11.52;;;16.30;99.90;;;;;;5073230;28;20064;-66
2022/05/11 03:51:56;;;;;;;16.30;10.65;;;16.30;99.90;;;;;;5056137;28;20115;-66
2022/05/11 03:54:23;;;;;;;19.58;11.98;;;16.30;99.90;;;;;;5073361;28;20024;-65
2022/05/11 03:56:49;;;;;;;19.60;12.02;;;16.30;99.90;;;;;;5073050;28;20020;-65
2022/05/11 03:59:14;;;;;;;16.30;11.50;;;16.30;99.90;;;;;;5072794;28;20195;-66
2022/05/11 04:01:40;;;;;;;16.05;11.38;;;16.30;99.90;;;;;;5054709;28;20028;-65
2022/05/11 04:04:06;;;;;;;19.42;12.55;;;16.30;99.90;;;;;;5055091;28;20025;-66
2022/05/11 04:06:32;;;;;;;17.85;13.02;;;16.40;99.90;;;;;;5072842;28;20033;-66
2022/05/11 04:08:58;;;;;;;18.27;12.23;;;16.40;99.90;;;;;;5072572;28;20036;-66
2022/05/11 04:11:24;;;;;;;17.42;11.70;;;16.40;99.90;;;;;;5072713;28;20066;-66
2022/05/11 04:13:50;;;;;;;16.10;11.48;;;16.40;99.90;;;;;;5054728;28;20033;-66
2022/05/11 04:16:17;;;;;;;18.55;11.57;;;16.40;99.90;;;;;;5072408;28;20388;-66
2022/05/11 04:18:43;;;;;;;18.85;12.40;;;16.40;99.90;;;;;;5072089;28;20024;-66
2022/05/11 04:21:09;;;;;;;16.27;11.55;;;16.40;99.90;;;;;;5072326;28;20051;-66
2022/05/11 04:23:35;;;;;;;17.45;11.93;;;16.40;99.90;;;;;;5054378;28;20437;-65
2022/05/11 04:26:01;;;;;;;17.58;11.70;;;16.50;99.90;;;;;;5072022;28;20036;-66
2022/05/11 04:28:27;;;;;;;19.23;12.20;;;16.50;99.90;;;;;;5072603;28;20536;-66
2022/05/11 04:31:04;;;;;;;19.38;12.13;;;16.60;99.90;;;;;;5072184;28;20031;-66
2022/05/11 04:33:29;;;;;;;17.38;11.57;;;16.70;99.90;;;;;;5071061;28;20033;-67
2022/05/11 04:35:55;;;;;;;17.98;11.18;;;16.70;99.90;;;;;;5072195;28;20345;-66
2022/05/11 04:38:21;;;;;;;17.38;12.27;;;16.70;99.90;;;;;;5072213;28;20052;-67
2022/05/11 04:40:46;;;;;;;18.83;11.25;;;16.70;99.90;;;;;;5072062;28;20474;-66
2022/05/11 04:43:12;;;;;;;19.67;13.35;;;16.70;99.90;;;;;;5072230;28;20099;-66
2022/05/11 04:45:43;;;;;;;20.42;11.50;;;16.80;99.90;;;;;;5072185;28;20033;-66
2022/05/11 04:48:09;;;;;;;18.77;12.38;;;16.80;99.90;;;;;;5054460;28;20020;-66
2022/05/11 04:50:41;;;;;;;20.23;12.13;;;16.90;99.90;;;;;;5071890;28;20190;-67
2022/05/11 04:53:08;;;;;;;17.73;11.73;;;17.00;99.90;;;;;;5071862;28;20033;-66
2022/05/11 04:55:34;;;;;;;20.10;12.40;;;17.00;99.90;;;;;;5071655;28;20035;-67
2022/05/11 04:57:59;;;;;;;19.17;12.25;;;17.00;99.90;;;;;;5053672;28;20024;-67
2022/05/11 05:00:25;;;;;;;25.02;13.38;;;17.10;99.90;;;;;;5071501;28;20020;-66
2022/05/11 05:02:51;;;;;;;18.30;12.00;;;17.20;99.90;;;;;;5053846;28;20028;-66
2022/05/11 05:05:18;;;;;;;17.58;12.25;;;17.20;99.90;;;;;;5071333;28;20043;-66
2022/05/11 05:07:44;;;;;;;17.42;11.98;;;17.20;99.90;;;;;;5071123;28;20020;-67
2022/05/11 05:10:12;;;;;;;16.88;11.48;;;17.30;99.90;;;;;;5071592;28;20066;-67
2022/05/11 05:12:38;;;;;;;;;;;17.30;99.90;;;;;;5072051;28;20027;-67
2022/05/11 05:15:04;;;;;;;17.33;11.48;;;17.30;99.90;;;;;;5071453;28;20352;-67
2022/05/11 05:17:29;;;;;;;18.23;13.02;;;17.40;99.90;;;;;;5071454;28;20046;-67
2022/05/11 05:19:55;;;;;;;18.02;12.90;;;17.40;99.90;;;;;;5071214;28;20485;-66
2022/05/11 05:22:21;;;;;;;21.70;11.75;;;17.40;99.90;;;;;;5071599;28;20108;-66
2022/05/11 05:24:47;;;;;;;17.98;11.80;;;17.40;99.90;;;;;;5071279;28;20489;-66
2022/05/11 05:27:14;;;;;;;18.83;11.77;;;17.40;99.90;;;;;;5071369;28;20073;-67
2022/05/11 05:32:24;;;;;;;16.90;11.73;;;17.50;99.90;;;;;;5071726;28;20039;-66
2022/05/11 05:34:50;;;;;;;18.20;11.50;;;17.50;99.90;;;;;;5071626;28;20028;-66
2022/05/11 05:37:17;;;;;;;17.60;11.57;;;17.40;99.90;;;;;;5071117;28;20024;-66
2022/05/11 05:39:44;;;;;;;17.02;11.27;;;17.40;99.90;;;;;;5070444;28;20020;-66
2022/05/11 05:42:17;;;;;;;17.52;11.40;;;17.30;99.90;;;;;;5052933;28;20116;-67
2022/05/11 05:44:43;;;;;;;16.73;11.48;;;17.20;99.90;;;;;;5050096;28;20555;-65
2022/05/11 05:47:09;;;;;;;17.77;11.38;;;17.10;99.90;;;;;;5070870;28;20116;-65
2022/05/11 05:49:35;;;;;;;19.38;11.32;;;17.10;99.90;;;;;;5073374;28;20405;-66
2022/05/11 05:52:02;;;;;;;18.30;11.95;;;17.00;99.90;;;;;;5075244;28;20082;-65
2022/05/11 05:54:32;;;;;;;21.02;11.98;;;17.10;99.90;;;;;;5056351;28;20526;-65
2022/05/11 05:56:58;;;;;;;17.45;11.95;;;17.20;99.90;;;;;;5049659;28;20082;-66
2022/05/11 05:59:25;;;;;;;19.67;11.82;;;17.20;99.90;;;;;;5058930;28;20021;-67
2022/05/11 06:01:50;;;;;;;18.83;11.25;;;17.30;99.90;;;;;;5037138;28;20028;-66
2022/05/11 06:04:16;;;;;;;17.98;10.98;;;17.40;99.90;;;;;;5057962;28;20012;-66
2022/05/11 06:06:42;;;;;;;19.58;11.60;;;17.50;99.90;;;;;;5066324;28;20044;-64
2022/05/11 06:09:09;;;;;;;17.15;11.40;;;17.60;99.90;;;;;;5064497;28;20071;-68
2022/05/11 06:11:36;;;;;;;17.17;11.52;;;17.60;99.90;;;;;;5055140;28;20108;-67
2022/05/11 06:14:02;;;;;;;17.20;11.68;;;17.70;99.90;;;;;;5039169;28;20029;-67
2022/05/11 06:16:27;;;;;;;21.33;12.18;;;17.80;99.90;;;;;;5037031;28;20398;-66
2022/05/11 06:18:53;;;;;;;17.63;11.20;;;17.90;99.90;;;;;;5054742;28;20032;-67
2022/05/11 06:21:20;;;;;;;18.98;11.77;;;17.90;99.90;;;;;;5059725;28;20013;-65
2022/05/11 06:23:46;;;;;;;16.70;10.82;;;18.00;99.90;;;;;;5074810;28;20024;-67
2022/05/11 06:26:12;;;;;;;18.83;11.85;;;18.10;99.90;;;;;;5056981;28;20043;-65
2022/05/11 06:28:40;;;;;;;17.92;12.10;;;18.20;99.90;;;;;;5075054;28;20107;-67
2022/05/11 06:33:49;;;;;;;19.17;11.45;;;18.30;99.90;;;;;;5073512;28;20048;-67
2022/05/11 06:36:14;;;;;;;;;;;18.40;99.20;;;;;;5056804;28;20028;-68
2022/05/11 06:38:40;;;;;;;17.40;11.00;;;18.40;99.30;;;;;;5067145;28;19931;-67
2022/05/11 06:41:12;;;;;;;18.10;12.00;;;18.40;99.30;;;;;;5053670;28;20048;-67
2022/05/11 06:43:37;;;;;;;18.58;11.48;;;18.40;99.10;;;;;;5034814;28;20482;-68
2022/05/11 06:46:04;;;;;;;21.33;12.38;;;18.50;98.70;;;;;;5034166;28;20099;-68
2022/05/11 06:48:30;;;;;;;18.42;11.65;;;18.50;98.60;;;;;;5033336;28;20529;-68
2022/05/11 06:50:56;;;;;;;27.25;12.68;;;18.50;99.20;;;;;;5034445;28;20104;-68
2022/05/11 06:53:21;;;;;;;19.55;11.63;;;18.60;98.70;;;;;;5033356;28;20063;-67
2022/05/11 07:01:15;;;;;;;18.92;12.05;;;18.80;98.60;;;;;;5033654;28;20029;-67
2022/05/11 07:03:41;;;;;;;17.70;12.13;;;18.90;98.30;;;;;;5033084;28;20450;-68
2022/05/11 07:06:07;;;;;;;19.73;12.85;;;18.90;98.10;;;;;;5034675;28;20521;-67
2022/05/11 07:08:35;;;;;;;19.27;12.13;;;19.00;98.10;;;;;;5035071;28;20046;-68
2022/05/11 07:13:46;;;;;;;19.20;12.10;;;19.00;97.90;;;;;;5034712;28;20128;-67
2022/05/11 07:16:12;;;;;;;17.85;12.52;;;19.00;97.80;;;;;;5034508;28;20104;-67
2022/05/11 07:18:37;;;;;;;17.52;12.15;;;19.20;97.60;;;;;;5016252;28;20447;-66
2022/05/11 07:21:03;;;;;;;18.85;12.38;;;19.20;97.50;;;;;;5033644;28;20049;-65
2022/05/11 07:23:30;;;;;;;18.75;11.85;;;19.30;97.70;;;;;;5033598;28;20028;-66
2022/05/11 07:25:56;;;;;;;17.85;11.52;;;19.40;97.90;;;;;;5034367;28;20056;-67
2022/05/11 07:28:22;;;;;;;19.17;11.75;;;19.50;97.20;;;;;;5034262;28;20504;-65
2022/05/11 07:30:48;;;;;;;28.10;12.52;;;19.40;97.10;;;;;;5033970;28;20026;-66
2022/05/11 07:33:17;;;;;;;23.88;13.27;;;19.50;97.20;;;;;;5033927;28;20394;-65
2022/05/11 07:35:44;;;;;;;20.27;13.40;;;19.50;96.40;;;;;;5016005;28;20482;-66
2022/05/11 07:38:15;;;;;;;20.92;12.18;;;19.60;96.50;;;;;;5035530;28;20025;-65
2022/05/11 07:40:42;;;;;;;21.48;11.77;;;19.70;96.50;;;;;;5035615;28;20021;-65
2022/05/11 07:43:08;;;;;;;30.52;13.98;;;19.80;96.20;;;;;;5053663;28;20049;-65
2022/05/11 07:45:35;;;;;;;19.77;12.70;;;19.90;96.60;;;;;;5035827;28;20611;-66
2022/05/11 07:48:01;;;;;;;18.45;11.75;;;19.90;95.40;;;;;;5035564;28;20025;-65
2022/05/11 07:50:26;;;;;;;19.27;12.98;;;20.00;95.50;;;;;;5053059;28;20095;-66
2022/05/11 07:52:54;;;;;;;21.58;12.68;;;20.10;95.60;;;;;;5035140;28;20115;-65
2022/05/11 07:55:20;;;;;;;20.50;12.57;;;20.10;95.40;;;;;;5053281;28;20121;-65
2022/05/11 08:00:31;;;;;;;21.08;12.50;;;20.10;95.20;;;;;;5053439;28;20082;-65
2022/05/11 08:02:57;;;;;;;18.83;12.20;;;20.10;95.30;;;;;;5034970;28;20029;-65
2022/05/11 08:05:23;;;;;;;20.98;12.93;;;20.20;95.30;;;;;;5025069;28;20183;-65
2022/05/11 08:07:54;;;;;;;29.98;13.63;;;20.10;95.00;;;;;;5032993;28;20029;-65
2022/05/11 08:10:41;;;;;;;22.13;14.07;;;20.00;95.00;;;;;;5033175;28;20096;-65
2022/05/11 08:13:07;;;;;;;21.48;13.80;;;20.10;95.10;;;;;;5014694;28;20033;-65
2022/05/11 08:15:37;;;;;;;19.02;13.18;;;20.10;95.00;;;;;;5023740;28;20513;-66
2022/05/11 08:18:04;;;;;;;25.77;14.23;;;20.10;95.00;;;;;;5052650;28;20096;-66
2022/05/11 08:20:33;;;;;;;18.17;12.75;;;20.20;95.00;;;;;;5052625;28;20021;-65
2022/05/11 08:23:00;;;;;;;20.67;13.50;;;20.30;94.70;;;;;;5060539;28;20159;-65
2022/05/11 08:25:29;;;;;;;18.63;13.13;;;20.30;94.50;;;;;;5060184;28;20045;-65
2022/05/11 08:27:56;;;;;;;18.45;12.35;;;20.40;94.30;;;;;;5040172;28;20021;-65
2022/05/11 08:33:22;;;;;;;18.75;11.63;;;20.50;93.60;;;;;;5056828;28;20515;-64
2022/05/11 08:35:57;;;;;;;18.25;11.50;;;20.60;93.60;;;;;;5057090;28;20112;-66
2022/05/11 08:38:25;;;;;;;21.63;12.55;;;20.50;93.70;;;;;;5035293;28;20025;-65
2022/05/11 08:40:56;;;;;;;22.20;11.43;;;20.50;94.00;;;;;;5051298;28;20037;-65
2022/05/11 08:43:23;;;;;;;15.73;10.50;;;20.60;94.00;;;;;;5051848;28;20014;-65
2022/05/11 08:46:08;;;;;;;16.48;11.20;;;20.60;93.50;;;;;;5040954;28;20421;-65
2022/05/11 08:48:45;;;;;;;16.55;11.40;;;20.50;93.90;;;;;;5033052;28;20025;-65
2022/05/11 08:51:21;;;;;;;20.05;12.10;;;20.60;94.00;;;;;;5032679;28;20033;-66
2022/05/11 08:53:49;;;;;;;18.40;11.95;;;20.80;94.10;;;;;;5032655;28;20095;-66
2022/05/11 08:56:18;;;;;;;18.30;11.50;;;20.90;94.00;;;;;;5032390;28;20030;-64
2022/05/11 08:58:48;;;;;;;18.92;12.32;;;21.00;94.10;;;;;;5032826;28;20604;-65
2022/05/11 09:01:28;;;;;;;18.73;12.00;;;20.80;93.70;;;;;;5032496;28;20021;-65
2022/05/11 09:03:54;;;;;;;21.88;13.00;;;20.80;94.40;;;;;;5032465;28;20017;-65
2022/05/11 09:06:27;;;;;;;17.65;11.90;;;20.80;94.20;;;;;;5032611;28;20440;-65
2022/05/11 09:08:58;;;;;;;17.65;12.15;;;20.80;93.90;;;;;;5014497;28;20113;-65
2022/05/11 09:11:38;;;;;;;19.25;11.30;;;20.80;93.70;;;;;;5014973;28;20561;-65
2022/05/11 09:14:04;;;;;;;17.38;11.45;;;21.00;93.80;;;;;;5031818;28;20049;-65
2022/05/11 09:16:39;;;;;;;17.25;12.23;;;21.30;93.50;;;;;;5032847;28;20072;-66
2022/05/11 09:19:28;;;;;;;17.15;11.90;;;21.30;92.90;;;;;;5015868;28;20028;-66
2022/05/11 09:21:56;;;;;;;18.00;12.35;;;21.50;92.90;;;;;;5019626;28;20084;-65
2022/05/11 09:24:29;;;;;;;20.05;12.35;;;21.40;92.50;;;;;;5036954;28;20049;-64
2022/05/11 09:27:21;;;;;;;17.17;11.77;;;21.40;92.90;;;;;;5037085;28;20409;-64
2022/05/11 09:30:05;;;;;;;16.42;11.18;;;21.30;92.70;;;;;;5018930;28;20053;-66
2022/05/11 09:32:39;;;;;;;15.93;11.60;;;21.30;92.30;;;;;;5037353;28;20091;-66
2022/05/11 09:35:25;;;;;;;18.73;11.70;;;21.30;92.50;;;;;;5035835;28;20029;-65
2022/05/11 09:38:19;;;;;;;17.95;11.77;;;21.50;92.40;;;;;;5026275;28;20033;-65
2022/05/11 09:40:54;;;;;;;19.13;11.75;;;21.60;92.10;;;;;;5030849;28;20105;-64
2022/05/11 09:43:30;;;;;;;16.50;11.45;;;21.70;92.30;;;;;;5032156;28;20045;-66
2022/05/11 09:45:56;;;;;;;16.42;11.57;;;22.00;92.30;;;;;;5032178;28;20017;-64
2022/05/11 09:48:27;;;;;;;18.90;11.30;;;21.90;92.00;;;;;;5034290;28;20397;-65
2022/05/11 09:50:55;;;;;;;16.55;11.48;;;21.80;91.70;;;;;;5014739;28;20033;-64
2022/05/11 09:53:36;;;;;;;18.15;11.07;;;21.50;91.30;;;;;;5032199;28;20030;-66
2022/05/11 09:56:28;;;;;;;16.30;11.13;;;21.60;91.40;;;;;;5016855;28;20030;-67
2022/05/11 09:58:54;;;;;;;16.92;10.30;;;22.00;91.60;;;;;;5017601;28;20045;-67
2022/05/11 10:01:27;;;;;;;17.95;11.02;;;22.00;91.30;;;;;;5034205;28;20026;-67
2022/05/11 10:03:59;;;;;;;17.73;10.90;;;21.90;90.60;;;;;;5015900;28;20383;-66
2022/05/11 10:06:32;;;;;;;16.88;11.27;;;22.10;90.90;;;;;;5052602;28;20494;-66
2022/05/11 10:09:00;;;;;;;19.23;10.90;;;22.00;90.70;;;;;;5052510;28;20244;-65
2022/05/11 10:11:40;;;;;;;22.20;11.60;;;22.20;90.00;;;;;;5051962;28;20029;-66
2022/05/11 10:22:52;;;;;;;18.15;11.15;;;22.30;88.90;;;;;;5052093;28;20117;-66
2022/05/11 10:25:33;;;;;;;15.88;10.95;;;22.30;88.70;;;;;;5052366;28;20045;-66
2022/05/11 10:28:02;;;;;;;17.20;10.98;;;22.30;88.60;;;;;;5052302;28;20025;-65
2022/05/11 10:30:47;;;;;;;;;;;22.40;88.60;;;;;;5051516;28;20018;-65
2022/05/11 10:33:36;;;;;;;16.25;11.40;;;22.30;88.70;;;;;;5046983;28;19925;-65
2022/05/11 10:36:04;;;;;;;18.23;11.00;;;22.30;88.80;;;;;;5027306;28;20667;-65
2022/05/11 10:38:40;;;;;;;17.63;11.18;;;22.60;87.50;;;;;;5033713;28;20036;-66
2022/05/11 10:41:26;;;;;;;18.40;11.43;;;22.70;88.30;;;;;;5041182;28;20052;-65
2022/05/11 10:44:28;;;;;;;17.27;12.32;;;22.90;88.40;;;;;;5040441;28;20040;-65
2022/05/11 10:46:54;;;;;;;17.10;11.85;;;22.70;87.70;;;;;;5038474;28;20026;-64
2022/05/11 10:49:23;;;;;;;18.73;11.23;;;22.80;87.50;;;;;;5035627;28;20034;-66
2022/05/11 10:52:15;;;;;;;17.98;11.73;;;22.80;87.10;;;;;;5034937;28;20041;-66
2022/05/11 10:55:12;;;;;;;18.30;12.25;;;22.70;86.60;;;;;;5034490;28;20140;-66
2022/05/11 10:58:06;;;;;;;17.45;11.68;;;22.80;87.20;;;;;;5034688;28;20485;-65
2022/05/11 11:00:36;;;;;;;16.70;11.27;;;22.90;86.40;;;;;;5034720;28;20057;-67
2022/05/11 11:03:17;;;;;;;16.65;11.68;;;22.80;87.00;;;;;;5034643;28;20041;-69
2022/05/11 11:09:28;;;;;;;16.80;11.20;;;22.80;87.10;;;;;;5034657;28;20036;-66
2022/05/11 11:12:01;;;;;;;17.95;11.60;;;23.30;87.20;;;;;;5034391;28;20490;-64
2022/05/11 11:14:32;;;;;;;17.75;11.55;;;24.30;85.10;;;;;;5016805;28;20021;-65
2022/05/11 11:17:00;;;;;;;16.80;11.10;;;24.80;83.00;;;;;;5038038;28;20037;-65
2022/05/11 11:19:26;;;;;;;16.60;11.75;;;25.10;82.00;;;;;;5037044;28;20043;-66
2022/05/11 11:21:53;;;;;;;20.05;11.60;;;25.10;81.60;;;;;;5036455;28;20026;-65
2022/05/11 11:24:25;;;;;;;20.83;12.38;;;25.90;80.20;;;;;;5036416;28;20025;-65
2022/05/11 11:27:05;;;;;;;19.45;12.88;;;26.10;79.60;;;;;;5034954;28;20032;-66
2022/05/11 11:30:12;;;;;;;16.90;12.00;;;26.20;79.30;;;;;;5034584;28;20420;-66
2022/05/11 11:33:13;;;;;;;19.92;12.48;;;26.00;78.50;;;;;;5016211;28;20095;-65
2022/05/11 11:35:41;;;;;;;19.90;12.98;;;25.60;78.60;;;;;;5033555;28;20196;-65
2022/05/11 11:38:07;;;;;;;18.20;12.88;;;25.90;79.50;;;;;;5016480;28;20019;-67
2022/05/11 11:40:35;;;;;;;18.08;12.35;;;26.50;74.90;;;;;;5033839;28;20021;-66
2022/05/11 11:45:50;;;;;;;19.70;12.20;;;26.20;74.60;;;;;;5036434;28;20024;-65
2022/05/11 11:48:21;;;;;;;19.00;12.77;;;26.60;74.20;;;;;;5046774;28;20112;-65
2022/05/11 11:50:49;;;;;;;18.58;12.32;;;27.00;73.20;;;;;;5044389;28;20025;-65
2022/05/11 11:53:33;;;;;;;18.88;11.85;;;27.80;72.90;;;;;;5035551;28;20463;-67
2022/05/11 11:56:23;;;;;;;17.83;11.55;;;27.30;72.50;;;;;;5051510;28;20420;-67
2022/05/11 11:59:07;;;;;;;17.90;11.65;;;27.30;72.70;;;;;;5027365;28;20037;-66
2022/05/11 12:01:43;;;;;;;17.50;12.27;;;28.10;70.70;;;;;;5043465;28;20074;-67
2022/05/11 12:04:30;;;;;;;16.90;11.98;;;28.30;69.80;;;;;;5045631;28;20132;-67
2022/05/11 12:15:41;;;;;;;18.17;11.73;;;27.30;67.50;;;;;;5056741;28;20086;-66
2022/05/11 12:18:31;;;;;;;16.27;11.82;;;27.50;67.90;;;;;;5057019;28;20017;-66
2022/05/11 12:20:58;;;;;;;18.20;12.20;;;28.20;67.80;;;;;;5029146;28;20036;-66
2022/05/11 12:23:39;;;;;;;17.40;12.30;;;28.50;67.00;;;;;;5029002;28;20020;-67
2022/05/11 12:26:11;;;;;;;18.05;11.52;;;28.10;65.80;;;;;;5057668;28;20083;-66
2022/05/11 12:28:44;;;;;;;15.52;11.93;;;27.60;65.70;;;;;;5052585;28;20029;-67
2022/05/11 12:31:26;;;;;;;16.08;12.07;;;27.60;65.50;;;;;;5052748;28;20037;-67
2022/05/11 12:33:54;;;;;;;17.65;11.80;;;27.30;65.50;;;;;;5028156;28;20047;-65
2022/05/11 12:36:37;;;;;;;17.35;11.50;;;27.50;65.10;;;;;;5052562;28;20033;-64
2022/05/11 12:39:04;;;;;;;19.02;12.27;;;27.20;65.50;;;;;;5052699;28;20029;-65
2022/05/11 12:41:31;;;;;;;16.45;11.77;;;27.30;66.10;;;;;;5034622;28;20056;-65
2022/05/11 12:44:12;;;;;;;16.50;11.48;;;27.40;65.30;;;;;;5052248;28;20021;-65
2022/05/11 12:46:42;;;;;;;16.90;11.57;;;27.60;65.80;;;;;;5034666;28;20032;-65
2022/05/11 12:49:14;;;;;;;19.00;12.13;;;27.80;65.30;;;;;;5051828;28;20486;-65
2022/05/11 12:51:52;;;;;;;15.77;11.52;;;27.90;65.10;;;;;;5034190;28;20425;-65
2022/05/11 12:54:21;;;;;;;20.15;11.55;;;28.30;64.60;;;;;;5052363;28;20025;-64
2022/05/11 12:56:58;;;;;;;16.90;11.48;;;27.70;64.50;;;;;;5034311;28;20489;-66
2022/05/11 12:59:28;;;;;;;16.92;11.18;;;27.70;64.90;;;;;;5044897;28;20021;-65
2022/05/11 13:02:23;;;;;;;18.10;10.90;;;27.80;64.80;;;;;;5040776;28;20153;-65
2022/05/11 13:04:55;;;;;;;15.68;10.48;;;28.20;63.70;;;;;;5025954;28;20024;-66
2022/05/11 13:07:24;;;;;;;16.58;10.48;;;27.90;64.00;;;;;;5040871;28;20516;-65
2022/05/11 13:09:56;;;;;;;17.75;11.38;;;27.60;64.70;;;;;;5025046;28;20021;-65
2022/05/11 13:12:22;;;;;;;16.40;11.25;;;27.60;64.50;;;;;;5040188;28;20112;-64
2022/05/11 13:14:52;;;;;;;16.02;10.85;;;27.80;64.90;;;;;;5040867;28;20036;-65
2022/05/11 13:17:40;;;;;;;16.67;10.65;;;28.60;63.70;;;;;;5040998;28;20021;-65
2022/05/11 13:20:08;;;;;;;;;;;29.30;63.20;;;;;;5023267;28;20091;-65
2022/05/11 13:22:34;;;;;;;16.20;10.40;;;29.30;62.60;;;;;;5041459;28;20371;-65
2022/05/11 13:25:03;;;;;;;17.50;11.05;;;29.60;62.10;;;;;;5039683;28;20025;-66
2022/05/11 13:27:43;;;;;;;16.98;11.23;;;29.30;62.20;;;;;;5033044;28;20043;-65
2022/05/11 13:30:21;;;;;;;18.15;11.05;;;29.20;62.10;;;;;;5033215;28;20032;-66
2022/05/11 13:32:52;;;;;;;16.33;10.80;;;30.00;62.20;;;;;;5040093;28;20055;-65
2022/05/11 13:35:22;;;;;;;15.85;10.98;;;29.70;62.60;;;;;;5023617;28;20033;-65